Vega Nikolas — A8QD2 — position and weather

sailwx.info

Track history (hours):
 
Tides and Currents Weather Stations Pressure Air Temp Water Temp Dewpoint Dewpoint Depression Visibility Wind Speed Wind Dir Waves Ship Positions

Vega Nikolas

Last reported at 2014-Oct-16 10:31 UTC. Time now 2014-Oct-25 19:48 UTC.
Position N 38°13' W 071°45'.
Warning: this ship's position is 9 days out of date.

Length 139 m; draft 7.3 m.

Type: Ship (hazmat cat A). MMSI: 636091613.

Date/timePositionNaut miles runAvg speedWind from/ knotsBaromVisibWave heightAir tempDewpointWater temp
2014-Oct-16 10:31N 38°13' W 071°45'1513.8
2014-Oct-16 09:28N 38°26' W 071°54'1514.3
2014-Oct-16 08:23N 38°40' W 072°03'1214.2
2014-Oct-16 07:33N 38°50' W 072°10'1514.3
2014-Oct-16 06:33N 39°03' W 072°20'12511.0
2014-Oct-15 19:09N 40°41' W 074°01'0 0.0
2014-Oct-15 10:26N 40°41' W 074°01'4 4.0
2014-Oct-15 09:33N 40°38' W 074°03'10 9.6
2014-Oct-15 08:33N 40°30' W 073°56'1111.3
2014-Oct-15 07:33N 40°24' W 073°44'1313.1
2014-Oct-15 06:34N 40°16' W 073°30'1313.5
2014-Oct-15 05:33N 40°08' W 073°16'1413.7
2014-Oct-15 04:33N 39°57' W 073°05'1413.8
2014-Oct-15 03:33N 39°46' W 072°55'1413.9
2014-Oct-15 02:33N 39°34' W 072°45'1413.9
2014-Oct-15 01:33N 39°22' W 072°36'1413.9
2014-Oct-15 00:32N 39°10' W 072°26'1313.5
2014-Oct-14 23:33N 38°59' W 072°16'1513.5
2014-Oct-14 22:28N 38°46' W 072°07'3113.0
2014-Oct-14 20:07N 38°19' W 071°49'  
Track history (hours):
 
Tides and Currents Weather Stations Pressure Air Temp Water Temp Dewpoint Dewpoint Depression Visibility Wind Speed Wind Dir Waves Ship Positions

Vega Nikolas

Last reported at 2014-Oct-16 10:31 UTC. Time now 2014-Oct-25 19:48 UTC.
Position N 38°13' W 071°45'.
Warning: this ship's position is 9 days out of date.

Length 139 m; draft 7.3 m.

Type: Ship (hazmat cat A). MMSI: 636091613.

Date/timePositionNaut miles runAvg speedWind from/ knotsBaromVisibWave heightAir tempDewpointWater temp
2014-Oct-16 10:31N 38°13' W 071°45'1513.8
2014-Oct-16 09:28N 38°26' W 071°54'1514.3
2014-Oct-16 08:23N 38°40' W 072°03'1214.2
2014-Oct-16 07:33N 38°50' W 072°10'1514.3
2014-Oct-16 06:33N 39°03' W 072°20'12511.0
2014-Oct-15 19:09N 40°41' W 074°01'0 0.0
2014-Oct-15 10:26N 40°41' W 074°01'4 4.0
2014-Oct-15 09:33N 40°38' W 074°03'10 9.6
2014-Oct-15 08:33N 40°30' W 073°56'1111.3
2014-Oct-15 07:33N 40°24' W 073°44'1313.1
2014-Oct-15 06:34N 40°16' W 073°30'1313.5
2014-Oct-15 05:33N 40°08' W 073°16'1413.7
2014-Oct-15 04:33N 39°57' W 073°05'1413.8
2014-Oct-15 03:33N 39°46' W 072°55'1413.9
2014-Oct-15 02:33N 39°34' W 072°45'1413.9
2014-Oct-15 01:33N 39°22' W 072°36'1413.9
2014-Oct-15 00:32N 39°10' W 072°26'1313.5
2014-Oct-14 23:33N 38°59' W 072°16'1513.5
2014-Oct-14 22:28N 38°46' W 072°07'3113.0
2014-Oct-14 20:07N 38°19' W 071°49'  

Dump ship's entire track history